Flight Track Log - Related Links

Times and Time Zones

All times are in EDT time to prevent confusion due to time zone crossing. See the SWA4657 flight status page for this flight to view local times or setup timezone preferences in your user account.

Time Position Orientation Groundspeed Altitude Reporting Facility
EDT Latitude Longitude Course Direction KTS MPH feet Rate Location/Type
Fri 12:17:19 PM 33.4333 -112.0333 270° West 147 169 1,700  Level Phoenix TRACON
Fri 12:17:50 PM 33.4333 -112.0667 270° West 173 199 2,600 1,516 Climbing Phoenix TRACON
Fri 12:18:50 PM 33.4333 -112.1500 270° West 258 297 4,000 2,000 Climbing Phoenix TRACON
Fri 12:19:56 PM 33.4833 -112.2167 312° West 276 318 6,800 2,762 Climbing Phoenix TRACON
Fri 12:20:56 PM 33.5167 -112.1500 59° Northeast 307 353 9,800 2,650 Climbing Phoenix TRACON
Fri 12:21:56 PM 33.5500 -112.0333 71° East 346 398 12,100 2,231 Climbing Phoenix TRACON
Fri 12:22:57 PM 33.5667 -111.9167 80° East 381 438 14,300 2,120 Climbing Phoenix TRACON
Fri 12:24:26 PM 33.5997 -111.7442 77° East 412 474 17,400 2,305 Climbing Albuquerque Center
Fri 12:25:28 PM 33.6308 -111.5767 77° East 433 498 20,100 2,371 Climbing Albuquerque Center
Fri 12:26:30 PM 33.6578 -111.4344 77° East 441 507 22,300 2,064 Climbing Albuquerque Center
Fri 12:27:33 PM 33.6856 -111.2875 77° East 454 522 24,400 2,016 Climbing Albuquerque Center
Fri 12:28:35 PM 33.7322 -111.1450 68° East 460 529 26,500 1,935 Climbing Albuquerque Center
Fri 12:29:37 PM 33.7928 -110.9753 67° East 463 533 28,400 1,403 Climbing Albuquerque Center
Fri 12:30:39 PM 33.8467 -110.8269 66° East 476 548 29,400 968 Climbing Albuquerque Center
Fri 12:31:41 PM 33.9033 -110.6719 66° East 497 572 30,400 871 Climbing Albuquerque Center
Fri 12:32:43 PM 33.9653 -110.5097 65° Northeast 522 601 31,200 919 Climbing Albuquerque Center
Fri 12:33:45 PM 34.0289 -110.3333 66° East 540 621 32,300 1,113 Climbing Albuquerque Center
Fri 12:34:47 PM 34.0919 -110.1631 66° East 552 635 33,500 1,452 Climbing Albuquerque Center
Fri 12:35:49 PM 34.1561 -109.9864 66° East 549 632 35,300 1,452 Climbing Albuquerque Center
Fri 12:36:51 PM 34.2222 -109.8039 66° East 537 618 36,500 823 Climbing Albuquerque Center
Fri 12:37:53 PM 34.2789 -109.6458 67° East 536 617 37,000 242 Climbing Albuquerque Center
Fri 12:38:55 PM 34.3447 -109.4606 67° East 536 617 37,000  Level Albuquerque Center
Fri 12:39:57 PM 34.4006 -109.3036 67° East 534 615 37,000  Level Albuquerque Center
Fri 12:40:59 PM 34.4658 -109.1225 66° East 530 610 37,000  Level Albuquerque Center
Fri 12:42:01 PM 34.5208 -108.9664 67° East 528 608 37,000  Level Albuquerque Center
Fri 12:43:03 PM 34.5844 -108.7839 67° East 528 608 37,000  Level Albuquerque Center
Fri 12:44:06 PM 34.6394 -108.6261 67° East 529 609 37,000  Level Albuquerque Center
Fri 12:45:08 PM 34.7025 -108.4411 67° East 531 611 37,000  Level Albuquerque Center
Fri 12:46:10 PM 34.7567 -108.2847 67° East 528 608 37,000  Level Albuquerque Center
Fri 12:47:12 PM 34.8161 -108.1108 67° East 529 609 37,000  Level Albuquerque Center
Fri 12:48:14 PM 34.8728 -107.9453 67° East 529 609 37,000  Level Albuquerque Center
Fri 12:49:16 PM 34.9556 -107.7950 56° Northeast 536 617 37,000  Level Albuquerque Center
Fri 12:50:18 PM 35.0411 -107.6472 55° Northeast 534 615 37,000  Level Albuquerque Center
Fri 12:51:20 PM 35.1453 -107.4697 54° Northeast 535 616 37,000  Level Albuquerque Center
Fri 12:52:22 PM 35.2281 -107.3294 54° Northeast 534 615 37,000  Level Albuquerque Center
Fri 12:53:24 PM 35.3033 -107.1519 63° Northeast 535 616 37,000  Level Albuquerque Center
Fri 12:54:26 PM 35.3544 -106.9844 69° East 527 606 37,000  Level Albuquerque Center
Fri 12:55:28 PM 35.4075 -106.8150 69° East 529 609 37,000  Level Albuquerque Center
Fri 12:56:30 PM 35.4656 -106.6342 68° East 528 608 37,000  Level Albuquerque Center
Fri 12:57:32 PM 35.5178 -106.4656 69° East 527 606 37,000  Level Albuquerque Center
Fri 12:58:34 PM 35.5736 -106.2850 69° East 526 605 37,000  Level Albuquerque Center
Fri 12:59:36 PM 35.6189 -106.1458 68° East 522 601 37,000  Level Albuquerque Center
Fri 01:00:39 PM 35.6858 -105.9478 67° East 523 602 37,000  Level Albuquerque Center
Fri 01:01:41 PM 35.7356 -105.7783 70° East 525 604 37,000  Level Albuquerque Center
Fri 01:02:43 PM 35.7861 -105.6083 70° East 527 606 37,000  Level Albuquerque Center
Fri 01:03:45 PM 35.8347 -105.4453 70° East 525 604 37,000  Level Albuquerque Center
Fri 01:04:47 PM 35.8958 -105.2456 69° East 527 606 37,000  Level Albuquerque Center
Fri 01:05:49 PM 35.9456 -105.0769 70° East 523 602 37,000  Level Albuquerque Center
Fri 01:06:51 PM 35.9975 -104.9047 70° East 525 604 37,000  Level Albuquerque Center
Fri 01:07:53 PM 36.0478 -104.7367 70° East 520 598 37,000  Level Albuquerque Center
Fri 01:08:55 PM 36.0975 -104.5653 70° East 521 600 37,000  Level Albuquerque Center
Fri 01:09:57 PM 36.1483 -104.3939 70° East 523 602 37,000  Level Albuquerque Center
Fri 01:10:59 PM 36.1972 -104.2236 70° East 521 600 37,000  Level Albuquerque Center
Fri 01:12:01 PM 36.2486 -104.0556 69° East 518 596 37,000  Level Albuquerque Center
Fri 01:13:03 PM 36.3061 -103.8564 70° East 519 597 37,000  Level Albuquerque Center
Fri 01:14:05 PM 36.3547 -103.6833 71° East 523 602 37,000  Level Albuquerque Center
Fri 01:15:07 PM 36.4031 -103.5103 71° East 523 602 37,000  Level Albuquerque Center
Fri 01:16:09 PM 36.4525 -103.3403 70° East 521 600 37,000  Level Albuquerque Center
Fri 01:17:11 PM 36.4994 -103.1692 71° East 520 598 37,000  Level Albuquerque Center
Fri 01:18:13 PM 36.5472 -102.9983 71° East 517 595 37,000  Level Albuquerque Center
Fri 01:19:16 PM 36.5925 -102.8308 71° East 516 594 37,000  Level Albuquerque Center
Fri 01:20:18 PM 36.6467 -102.6375 71° East 517 595 37,000  Level Albuquerque Center
Fri 01:21:20 PM 36.6956 -102.4567 71° East 520 598 37,000  Level Albuquerque Center
Fri 01:22:22 PM 36.7417 -102.2883 71° East 517 595 37,000  Level Albuquerque Center
Fri 01:23:24 PM 36.7883 -102.1136 72° East 513 590 37,000  Level Albuquerque Center
Fri 01:24:26 PM 36.8314 -101.9514 72° East 514 592 37,000  Level Albuquerque Center
Fri 01:25:28 PM 36.8819 -101.7639 71° East 513 590 37,000  Level Albuquerque Center
Fri 01:26:30 PM 36.9247 -101.6014 72° East 514 592 37,000  Level Albuquerque Center
Fri 01:27:45 PM 36.9819 -101.3850 72° East 515 593 37,000  Level Kansas City Center
Fri 01:28:47 PM 37.0314 -101.1942 72° East 517 595 37,000  Level Kansas City Center
Fri 01:29:49 PM 37.0744 -101.0300 72° East 519 597 37,000  Level Kansas City Center
Fri 01:30:51 PM 37.1239 -100.8381 72° East 521 600 37,000  Level Kansas City Center
Fri 01:31:53 PM 37.1661 -100.6736 72° East 522 601 37,000  Level Kansas City Center
Fri 01:32:55 PM 37.2144 -100.4811 72° East 522 601 37,000  Level Kansas City Center
Fri 01:33:57 PM 37.2558 -100.3175 72° East 520 598 37,000  Level Kansas City Center
Fri 01:34:59 PM 37.3042 -100.1261 72° East 518 596 37,000  Level Kansas City Center
Fri 01:36:01 PM 37.3450 -99.9625 73° East 517 595 37,000  Level Kansas City Center
Fri 01:37:03 PM 37.3914 -99.7722 73° East 514 592 37,000  Level Kansas City Center
Fri 01:38:05 PM 37.4311 -99.6100 73° East 511 588 37,000  Level Kansas City Center
Fri 01:39:07 PM 37.4728 -99.4386 73° East 509 586 37,000  Level Kansas City Center
Fri 01:40:09 PM 37.5156 -99.2686 72° East 510 587 37,000  Level Kansas City Center
Fri 01:41:12 PM 37.5533 -99.0994 74° East 505 581 37,000  Level Kansas City Center
Fri 01:42:14 PM 37.5944 -98.9300 73° East 503 579 37,000  Level Kansas City Center
Fri 01:43:16 PM 37.6428 -98.7247 73° East 508 585 37,000  Level Kansas City Center
Fri 01:44:18 PM 37.6819 -98.5531 74° East 511 588 37,000  Level Kansas City Center
Fri 01:45:20 PM 37.7228 -98.3836 73° East 508 585 37,000  Level Kansas City Center
Fri 01:46:22 PM 37.7617 -98.2133 74° East 508 585 37,000  Level Kansas City Center
Fri 01:47:24 PM 37.8042 -98.0239 74° East 504 580 37,000  Level Kansas City Center
Fri 01:48:26 PM 37.8428 -97.8503 74° East 507 583 37,000  Level Kansas City Center
Fri 01:49:28 PM 37.8808 -97.6761 74° East 510 587 37,000  Level Kansas City Center
Fri 01:50:30 PM 37.9264 -97.4889 73° East 505 581 37,000  Level Kansas City Center
Fri 01:51:32 PM 37.9581 -97.3372 75° East 507 583 37,000  Level Kansas City Center
Fri 01:52:34 PM 38.0036 -97.1339 74° East 501 577 37,000  Level Kansas City Center
Fri 01:53:36 PM 38.0408 -96.9642 74° East 501 577 37,000  Level Kansas City Center
Fri 01:54:38 PM 38.0778 -96.7944 74° East 500 575 37,000  Level Kansas City Center
Fri 01:55:40 PM 38.1133 -96.6250 75° East 499 574 37,000  Level Kansas City Center
Fri 01:56:42 PM 38.1503 -96.4556 74° East 499 574 37,000  Level Kansas City Center
Fri 01:57:45 PM 38.1858 -96.2864 75° East 497 572 37,000  Level Kansas City Center
Fri 01:58:46 PM 38.2267 -96.0961 75° East 496 571 37,000 439 Level Kansas City Center
Fri 01:59:48 PM 38.2661 -95.9058 75° East 499 574 37,900 871 Climbing Kansas City Center
Fri 02:00:50 PM 38.2992 -95.7458 75° East 492 566 38,800 528 Climbing Kansas City Center
Fri 02:01:53 PM 38.3383 -95.5567 79° East 495 570 39,000 96 Climbing Kansas City Center
Fri 02:02:00 PM 38.3284 -95.5570 79° East  Level FlightAware Approximate
Fri 02:02:55 PM 38.3708 -95.3950 76° East 494 568 39,000  Level Kansas City Center
Fri 02:03:57 PM 38.4094 -95.2072 75° East 494 568 39,000  Level Kansas City Center
Fri 02:04:59 PM 38.4414 -95.0475 76° East 490 564 39,000  Level Kansas City Center
Fri 02:06:01 PM 38.4736 -94.8881 75° East 489 563 39,000  Level Kansas City Center
Fri 02:07:03 PM 38.5097 -94.7014 76° East 487 560 39,000  Level Kansas City Center
Fri 02:08:05 PM 38.5406 -94.5406 76° East 489 563 39,000  Level Kansas City Center
Fri 02:09:07 PM 38.5764 -94.3550 76° East 485 558 39,000  Level Kansas City Center
Fri 02:10:09 PM 38.6058 -94.1972 77° East 481 554 39,000  Level Kansas City Center
Fri 02:11:11 PM 38.6414 -94.0108 76° East 484 557 39,000  Level Kansas City Center
Fri 02:12:13 PM 38.6711 -93.8522 76° East 482 555 39,000  Level Kansas City Center
Fri 02:13:15 PM 38.7039 -93.6772 76° East 483 556 39,000  Level Kansas City Center
Fri 02:14:17 PM 38.7333 -93.5103 77° East 481 554 39,000  Level Kansas City Center
Fri 02:15:19 PM 38.7678 -93.3386 76° East 487 560 39,000  Level Kansas City Center
Fri 02:16:21 PM 38.8039 -93.1361 77° East 485 558 39,000  Level Kansas City Center
Fri 02:17:23 PM 38.8336 -92.9694 77° East 480 552 39,000  Level Kansas City Center
Fri 02:18:25 PM 38.8633 -92.8019 77° East 479 551 39,000  Level Kansas City Center
Fri 02:19:27 PM 38.8928 -92.6353 77° East 478 550 39,000  Level Kansas City Center
Fri 02:20:29 PM 38.9225 -92.4683 77° East 477 549 39,000  Level Kansas City Center
Fri 02:21:32 PM 38.9517 -92.2986 77° East 480 552 39,000  Level Kansas City Center
Fri 02:22:34 PM 38.9794 -92.1317 78° East 478 550 39,000  Level Kansas City Center
Fri 02:23:36 PM 39.0139 -91.9322 77° East 475 547 39,000  Level Kansas City Center
Fri 02:24:38 PM 39.0414 -91.7658 78° East 475 547 39,000  Level Kansas City Center
Fri 02:25:40 PM 39.0694 -91.5986 78° East 474 545 39,000  Level Kansas City Center
Fri 02:26:42 PM 39.0981 -91.4308 78° East 476 548 39,000  Level Kansas City Center
Fri 02:27:44 PM 39.1261 -91.2628 78° East 478 550 39,000  Level Kansas City Center
Fri 02:28:46 PM 39.1531 -91.0961 78° East 478 550 39,000  Level Kansas City Center
Fri 02:29:48 PM 39.1800 -90.9292 78° East 476 548 39,000  Level Kansas City Center
Fri 02:30:50 PM 39.2067 -90.7611 78° East 476 548 39,000  Level Kansas City Center
Fri 02:31:52 PM 39.2389 -90.5614 78° East 474 545 39,000  Level Kansas City Center
Fri 02:32:54 PM 39.2642 -90.3942 79° East 473 544 39,000  Level Kansas City Center
Fri 02:33:56 PM 39.2897 -90.2275 79° East 473 544 39,000  Level Kansas City Center
Fri 02:34:58 PM 39.3150 -90.0600 79° East 474 545 39,000  Level Kansas City Center
Fri 02:36:00 PM 39.3394 -89.8950 79° East 470 541 39,000  Level Kansas City Center
Fri 02:37:02 PM 39.3644 -89.7294 79° East 468 539 39,000  Level Kansas City Center
Fri 02:38:04 PM 39.3883 -89.5636 79° East 470 541 39,000  Level Kansas City Center
Fri 02:39:06 PM 39.4175 -89.3650 79° East 468 539 39,000  Level Kansas City Center
Fri 02:40:09 PM 39.4392 -89.2181 79° East 467 537 39,000  Level Kansas City Center
Fri 02:41:11 PM 39.4639 -89.0528 79° East 468 539 39,000  Level Kansas City Center
Fri 02:42:13 PM 39.4917 -88.8547 80° East 469 540 39,000  Level Kansas City Center
Fri 02:43:15 PM 39.5142 -88.6897 80° East 468 539 39,000  Level Kansas City Center
Fri 02:44:17 PM 39.5392 -88.5172 79° East 469 540 39,000  Level Kansas City Center
Fri 02:45:19 PM 39.5636 -88.3489 79° East 471 542 39,000  Level Kansas City Center
Fri 02:46:21 PM 39.5858 -88.1789 80° East 474 545 39,000  Level Kansas City Center
Fri 02:46:51 PM 39.5925 -88.1058 83° East 471 542 39,000  Level Indianapolis Center
Fri 02:47:53 PM 39.6111 -87.9397 82° East 469 540 39,000  Level Indianapolis Center
Fri 02:48:55 PM 39.6356 -87.7397 81° East 468 539 39,000  Level Indianapolis Center
Fri 02:49:57 PM 39.6544 -87.5739 82° East 467 537 39,000  Level Indianapolis Center
Fri 02:50:59 PM 39.6736 -87.4094 81° East 465 535 39,000  Level Indianapolis Center
Fri 02:52:02 PM 39.6908 -87.2450 82° East 464 534 39,000  Level Indianapolis Center
Fri 02:53:04 PM 39.7094 -87.0803 82° East 463 533 39,000  Level Indianapolis Center
Fri 02:54:06 PM 39.7317 -86.8844 82° East 461 531 39,000  Level Indianapolis Center
Fri 02:55:08 PM 39.7486 -86.7211 82° East 459 528 39,000  Level Indianapolis Center
Fri 02:56:10 PM 39.7661 -86.5586 82° East 457 526 39,000  Level Indianapolis Center
Fri 02:57:12 PM 39.7836 -86.3956 82° East 452 520 39,000  Level Indianapolis Center
Fri 02:58:14 PM 39.8006 -86.2297 82° East 454 522 39,000  Level Indianapolis Center
Fri 02:59:16 PM 39.8181 -86.0564 82° East 458 527 39,000  Level Indianapolis Center
Fri 03:00:18 PM 39.8336 -85.8928 83° East 457 526 39,000  Level Indianapolis Center
Fri 03:01:20 PM 39.8500 -85.7242 83° East 466 536 39,000  Level Indianapolis Center
Fri 03:02:22 PM 39.8667 -85.5583 82° East 466 536 39,000  Level Indianapolis Center
Fri 03:03:24 PM 39.8856 -85.3578 83° East 468 539 39,000  Level Indianapolis Center
Fri 03:04:26 PM 39.9006 -85.1914 83° East 465 535 39,000  Level Indianapolis Center
Fri 03:05:28 PM 39.9167 -85.0261 83° East 462 532 39,000  Level Indianapolis Center
Fri 03:06:30 PM 39.9311 -84.8622 83° East 460 529 39,000  Level Indianapolis Center
Fri 03:07:32 PM 39.9461 -84.6989 83° East 458 527 39,000  Level Indianapolis Center
Fri 03:08:35 PM 39.9628 -84.5042 84° East 453 521 39,000  Level Indianapolis Center
Fri 03:09:37 PM 39.9769 -84.3425 83° East 450 518 39,000  Level Indianapolis Center
Fri 03:10:39 PM 39.9911 -84.1803 83° East 452 520 39,000  Level Indianapolis Center
Fri 03:11:41 PM 40.0050 -84.0192 84° East 450 518 39,000  Level Indianapolis Center
Fri 03:12:43 PM 40.0197 -83.8431 84° East 450 518 39,000  Level Indianapolis Center
Fri 03:13:45 PM 40.0322 -83.6792 84° East 451 519 39,000  Level Indianapolis Center
Fri 03:14:47 PM 40.0456 -83.5164 84° East 449 517 39,000  Level Indianapolis Center
Fri 03:15:49 PM 40.0575 -83.3522 85° East 452 520 39,000  Level Indianapolis Center
Fri 03:16:51 PM 40.0703 -83.1875 84° East 453 521 39,000  Level Indianapolis Center
Fri 03:17:53 PM 40.0856 -82.9964 84° East 450 518 39,000  Level Indianapolis Center
Fri 03:18:55 PM 40.0972 -82.8325 85° East 450 518 39,000  Level Indianapolis Center
Fri 03:19:57 PM 40.1092 -82.6689 84° East 450 518 39,000  Level Indianapolis Center
Fri 03:20:59 PM 40.1194 -82.5061 85° East 447 514 39,000  Level Indianapolis Center
Fri 03:22:01 PM 40.1314 -82.3447 84° East 445 512 39,000  Level Indianapolis Center
Fri 03:23:03 PM 40.1411 -82.1803 86° East 449 517 39,000  Level Indianapolis Center
Fri 03:24:05 PM 40.1542 -81.9889 85° East 450 518 39,000  Level Indianapolis Center
Fri 03:25:08 PM 40.1653 -81.8222 85° East 455 524 39,000  Level Indianapolis Center
Fri 03:26:10 PM 40.1747 -81.6561 86° East 456 525 39,000  Level Indianapolis Center
Fri 03:27:12 PM 40.1850 -81.4911 85° East 456 525 39,000  Level Indianapolis Center
Fri 03:28:14 PM 40.1958 -81.3258 85° East 455 524 39,000  Level Indianapolis Center
Fri 03:29:16 PM 40.2047 -81.1619 86° East 453 521 39,000  Level Indianapolis Center
Fri 03:29:51 PM 40.2114 -81.0511 85° East 449 517 39,000  Level Cleveland Center
Fri 03:30:53 PM 40.2197 -80.8911 86° East 447 514 39,000  Level Cleveland Center
Fri 03:31:55 PM 40.2297 -80.7275 85° East 453 521 39,000  Level Cleveland Center
Fri 03:32:57 PM 40.2394 -80.5664 85° East 450 518 39,000  Level Cleveland Center
Fri 03:33:59 PM 40.2475 -80.4058 86° East 452 520 39,000  Level Cleveland Center
Fri 03:35:01 PM 40.2564 -80.2128 86° East 453 521 39,000 -387 Level Cleveland Center
Fri 03:36:03 PM 40.2642 -80.0531 86° East 452 520 38,200 -823 Descending Cleveland Center
Fri 03:37:05 PM 40.2728 -79.8953 86° East 445 512 37,300 -871 Descending Cleveland Center
Fri 03:38:07 PM 40.2792 -79.7358 87° East 443 510 36,400 -1,016 Descending Cleveland Center
Fri 03:39:09 PM 40.2875 -79.5419 87° East 448 516 35,200 -1,016 Descending Cleveland Center
Fri 03:40:11 PM 40.2942 -79.3792 87° East 449 517 34,300 -864 Descending Cleveland Center
Fri 03:41:14 PM 40.3006 -79.2261 87° East 453 521 33,400 -624 Descending Cleveland Center
Fri 03:42:16 PM 40.3078 -79.0319 87° East 452 520 33,000 -484 Descending Cleveland Center
Fri 03:43:18 PM 40.3150 -78.8692 87° East 452 520 32,400 -726 Descending Cleveland Center
Fri 03:44:20 PM 40.3164 -78.7022 89° East 462 532 31,500 -919 Descending Cleveland Center
Fri 03:45:22 PM 40.3161 -78.5364 90° East 463 533 30,500 -1,065 Descending Cleveland Center
Fri 03:46:24 PM 40.3153 -78.3372 90° East 461 531 29,300 -1,161 Descending Cleveland Center
Fri 03:47:26 PM 40.3150 -78.1747 90° East 455 524 28,100 -1,790 Descending Cleveland Center
Fri 03:48:28 PM 40.3144 -78.0147 90° East 448 516 25,600 -1,500 Descending Cleveland Center
Fri 03:49:30 PM 40.3122 -77.8622 91° East 430 495 25,000 -339 Descending Cleveland Center
Fri 03:50:32 PM 40.3100 -77.7131 91° East 417 480 24,900  Descending Cleveland Center
Fri 03:51:35 PM 40.3083 -77.5325 91° East 418 481 25,000 -960 Climbing Cleveland Center
Fri 03:52:37 PM 40.3075 -77.3811 90° East 420 483 22,900 -2,323 Descending Cleveland Center
Fri 03:53:39 PM 40.3036 -77.2150 92° East 412 474 20,200 -2,371 Descending Cleveland Center
Fri 03:54:41 PM 40.3003 -77.0667 92° East 409 471 18,000 -1,161 Descending Cleveland Center
Fri 03:55:43 PM 40.2697 -76.9306 106° East 389 448 17,800 -435 Descending Cleveland Center
Fri 03:56:45 PM 40.2381 -76.7933 107° East 392 451 17,100 -864 Descending Cleveland Center
Fri 03:57:48 PM 40.2067 -76.6525 106° East 388 447 16,000 -1,065 Descending New York Center
Fri 03:58:49 PM 40.1719 -76.5108 108° East 388 447 14,900 -1,041 Descending New York Center
Fri 03:59:49 PM 40.1406 -76.3833 108° East 380 437 13,900 -992 Descending New York Center
Fri 04:00:50 PM 40.1156 -76.2511 104° East 370 426 12,900 -992 Descending New York Center
Fri 04:01:50 PM 40.1103 -76.1339 93° East 365 420 11,900 -1,271 Descending New York Center
Fri 04:02:48 PM 40.1000 -75.9947 95° East 352 405 10,400 -1,068 Descending New York Center
Fri 04:03:48 PM 40.0925 -75.8828 95° East 330 380 9,800 -1,100 Descending New York Center
Fri 04:04:48 PM 40.0819 -75.7844 98° East 283 326 8,200 -1,339 Descending New York Center
Fri 04:05:49 PM 40.0758 -75.6808 94° East 283 326 7,100 -1,091 Descending New York Center
Fri 04:06:49 PM 40.0717 -75.5831 93° East 271 312 6,000 -545 Descending New York Center
Fri 04:07:50 PM 40.0669 -75.4906 94° East 271 312 6,000  Level New York Center
Fri 04:08:50 PM 40.0408 -75.4181 115° Southeast 240 276 6,000  Level New York Center
Fri 04:09:50 PM 39.9811 -75.3953 164° South 212 244 6,000 -153 Level New York Center
Fri 04:10:48 PM 39.9258 -75.4267 204° Southwest 213 245 5,700 -508 Descending New York Center
Fri 04:11:48 PM 39.9081 -75.5042 253° West 173 199 5,000 -595 Descending New York Center
Fri 04:12:49 PM 39.8906 -75.5733 252° West 189 217 4,500 -713 Descending New York Center
Fri 04:13:29 PM 39.8667 -75.5833 198° South 189 217 3,800 -900 Descending Philadelphia TRACON
Fri 04:14:29 PM 39.8333 -75.5333 131° Southeast 176 203 3,000 -450 Descending Philadelphia TRACON
Fri 04:15:29 PM 39.8167 -75.4667 108° East 173 199 2,900 -500 Descending Philadelphia TRACON
Fri 04:16:29 PM 39.8333 -75.4167 67° East 172 198 2,000 -893 Descending Philadelphia TRACON
Fri 04:17:30 PM 39.8500 -75.3500 72° East 173 199 1,100 -800 Descending Philadelphia TRACON
Fri 04:18:29 PM 39.8500 -75.3000 90° East 134 154 400 -712 Descending Philadelphia TRACON
Fri 04:20:00 PM 39.8667 -75.2333 84° East  Level FlightAware Approximate
Fri 04:27:00 PM 39.8722 -75.2409 84° East  Level Estimated

Login

Don't have an account? Register now (free) for customized features, flight alerts, and more!